Time;durP1;ratioP1;P1;durP2;ratioP2;P2;SDS_P1;SDS_P2;PMS_P1;PMS_P2;Temp;Humidity;BMP_temperature;BMP_pressure;BME280_temperature;BME280_humidity;BME280_pressure;Samples;Min_cycle;Max_cycle;Signal;HPM_P1;HPM_P2
2023/02/23 00:02:04;;;;;;;35.72;19.80;;;;;;;;;;5041199;28;20470;-76
2023/02/23 00:04:30;;;;;;;31.30;19.52;;;;;;;;;;5057296;28;20048;-76
2023/02/23 00:06:56;;;;;;;37.25;19.92;;;;;;;;;;5051462;28;20696;-77
2023/02/23 00:09:23;;;;;;;35.45;20.05;;;;;;;;;;5054532;28;20069;-77
2023/02/23 00:11:56;;;;;;;49.20;27.05;;;;;;;;;;5051396;28;20029;-76
2023/02/23 00:14:27;;;;;;;36.40;20.50;;;;;;;;;;5049267;28;20051;-76
2023/02/23 00:16:53;;;;;;;38.25;21.27;;;;;;;;;;5041111;28;20057;-76
2023/02/23 00:19:19;;;;;;;33.10;17.38;;;;;;;;;;5048223;28;20394;-76
2023/02/23 00:21:45;;;;;;;39.58;20.98;;;;;;;;;;5050063;28;20033;-76
2023/02/23 00:24:17;;;;;;;47.97;26.63;;;;;;;;;;5048653;28;20032;-77
2023/02/23 00:26:44;;;;;;;;;;;;;;;;;;5048353;28;20053;-76
2023/02/23 00:29:16;;;;;;;32.97;18.23;;;;;;;;;;5054990;28;19942;-77
2023/02/23 00:31:43;;;;;;;31.27;17.65;;;;;;;;;;5051103;28;20489;-77
2023/02/23 00:34:09;;;;;;;25.63;17.85;;;;;;;;;;5050586;28;20382;-77
2023/02/23 00:36:36;;;;;;;20.45;11.40;;;;;;;;;;5051293;28;20033;-76
2023/02/23 00:39:19;;;;;;;20.08;11.10;;;;;;;;;;5047609;28;20037;-77
2023/02/23 00:41:45;;;;;;;19.60;10.68;;;;;;;;;;5050925;28;20064;-76
2023/02/23 00:44:14;;;;;;;17.38;11.13;;;;;;;;;;5050027;28;20060;-76
2023/02/23 00:46:41;;;;;;;26.15;12.50;;;;;;;;;;5045970;28;20060;-76
2023/02/23 00:49:07;;;;;;;23.13;12.52;;;;;;;;;;5047296;28;20029;-76
2023/02/23 00:51:33;;;;;;;22.42;12.80;;;;;;;;;;5046247;28;20359;-77
2023/02/23 00:53:59;;;;;;;24.88;12.18;;;;;;;;;;5049425;28;20037;-76
2023/02/23 00:56:26;;;;;;;20.42;12.65;;;;;;;;;;5038203;28;20033;-76
2023/02/23 00:58:52;;;;;;;26.15;17.15;;;;;;;;;;5038978;28;20040;-77
2023/02/23 01:01:18;;;;;;;26.42;16.17;;;;;;;;;;5051579;28;20067;-76
2023/02/23 01:03:44;;;;;;;28.33;17.98;;;;;;;;;;5038232;28;20052;-76
2023/02/23 01:06:12;;;;;;;31.20;18.92;;;;;;;;;;5049723;28;20055;-77
2023/02/23 01:08:40;;;;;;;28.85;19.02;;;;;;;;;;5049410;28;20037;-76
2023/02/23 01:11:11;;;;;;;30.83;18.42;;;;;;;;;;5052569;28;20106;-76
2023/02/23 01:13:38;;;;;;;31.52;20.40;;;;;;;;;;5044704;28;20463;-76
2023/02/23 01:16:05;;;;;;;25.08;16.83;;;;;;;;;;5033572;28;20038;-76
2023/02/23 01:18:33;;;;;;;26.98;16.92;;;;;;;;;;5047601;28;20489;-77
2023/02/23 01:20:59;;;;;;;24.45;15.75;;;;;;;;;;5050157;28;20136;-77
2023/02/23 01:23:25;;;;;;;23.73;16.67;;;;;;;;;;5048799;28;20021;-77
2023/02/23 01:25:51;;;;;;;24.77;15.15;;;;;;;;;;5050000;28;20501;-77
2023/02/23 01:28:17;;;;;;;26.02;16.80;;;;;;;;;;5049179;28;20037;-77
2023/02/23 01:30:43;;;;;;;24.55;15.73;;;;;;;;;;5060365;28;20064;-76
2023/02/23 01:33:11;;;;;;;23.77;14.65;;;;;;;;;;5050193;28;20021;-76
2023/02/23 01:35:37;;;;;;;22.95;15.27;;;;;;;;;;5049638;28;20039;-76
2023/02/23 01:38:03;;;;;;;24.85;17.08;;;;;;;;;;5040412;28;20040;-76
2023/02/23 01:40:30;;;;;;;23.75;14.55;;;;;;;;;;5050701;28;20051;-77
2023/02/23 01:42:56;;;;;;;34.50;21.88;;;;;;;;;;5047842;28;20031;-76
2023/02/23 01:45:30;;;;;;;30.05;19.08;;;;;;;;;;5051712;28;20043;-76
2023/02/23 01:48:00;;;;;;;29.95;17.45;;;;;;;;;;5034424;28;20108;-77
2023/02/23 01:50:27;;;;;;;26.83;16.73;;;;;;;;;;5051374;28;20039;-76
2023/02/23 01:52:54;;;;;;;22.85;15.20;;;;;;;;;;5049716;28;20025;-77
2023/02/23 01:55:22;;;;;;;28.67;17.40;;;;;;;;;;5041208;28;20057;-76
2023/02/23 01:57:49;;;;;;;26.60;16.27;;;;;;;;;;5045098;28;20532;-76
2023/02/23 02:00:18;;;;;;;25.55;16.70;;;;;;;;;;5049168;28;20044;-77
2023/02/23 02:02:47;;;;;;;26.17;16.77;;;;;;;;;;5047536;28;20055;-76
2023/02/23 02:05:14;;;;;;;25.83;17.05;;;;;;;;;;5047357;28;20077;-76
2023/02/23 02:07:45;;;;;;;27.95;18.10;;;;;;;;;;5042192;28;20379;-76
2023/02/23 02:12:38;;;;;;;26.50;17.42;;;;;;;;;;5049737;28;20032;-77
2023/02/23 02:15:05;;;;;;;22.55;14.73;;;;;;;;;;5048827;28;20083;-76
2023/02/23 02:17:40;;;;;;;21.60;13.82;;;;;;;;;;5049556;28;20033;-76
2023/02/23 02:20:11;;;;;;;21.52;13.95;;;;;;;;;;5048288;28;20520;-77
2023/02/23 02:22:37;;;;;;;23.55;14.70;;;;;;;;;;5049326;28;20029;-77
2023/02/23 02:25:10;;;;;;;22.17;11.95;;;;;;;;;;5044418;28;20095;-76
2023/02/23 02:27:42;;;;;;;20.95;11.93;;;;;;;;;;5030355;28;20037;-76
2023/02/23 02:30:21;;;;;;;19.10;12.77;;;;;;;;;;5041495;28;20037;-76
2023/02/23 02:33:13;;;;;;;21.20;12.00;;;;;;;;;;5037090;28;20555;-76
2023/02/23 02:35:42;;;;;;;18.13;9.88;;;;;;;;;;5049219;28;20107;-77
2023/02/23 02:38:15;;;;;;;17.05;9.35;;;;;;;;;;5040887;28;20103;-76
2023/02/23 02:40:59;;;;;;;19.13;10.00;;;;;;;;;;5048765;28;20029;-76
2023/02/23 02:43:25;;;;;;;17.83;10.27;;;;;;;;;;5049068;28;20029;-77
2023/02/23 02:46:09;;;;;;;23.15;11.38;;;;;;;;;;5052870;28;20036;-77
2023/02/23 02:48:56;;;;;;;22.98;10.30;;;;;;;;;;5044096;28;20142;-76
2023/02/23 02:51:27;;;;;;;20.02;10.70;;;;;;;;;;5052475;28;20029;-77
2023/02/23 02:54:09;;;;;;;16.75;10.60;;;;;;;;;;5048049;28;20543;-77
2023/02/23 02:56:39;;;;;;;19.10;12.02;;;;;;;;;;5046899;28;20029;-77
2023/02/23 04:17:39;;;;;;;26.88;16.38;;;;;;;;;;5062863;28;20405;-77
2023/02/23 04:20:05;;;;;;;25.92;16.42;;;;;;;;;;5033866;28;20125;-77
2023/02/23 04:22:34;;;;;;;26.88;17.63;;;;;;;;;;5056276;28;20029;-77
2023/02/23 04:25:00;;;;;;;26.05;18.27;;;;;;;;;;5051651;28;20033;-76
2023/02/23 04:27:26;;;;;;;34.05;20.33;;;;;;;;;;5054071;28;20071;-77
2023/02/23 04:29:52;;;;;;;27.50;19.35;;;;;;;;;;5043487;28;20080;-76
2023/02/23 04:32:19;;;;;;;29.63;19.30;;;;;;;;;;5042399;28;20045;-77
2023/02/23 04:34:45;;;;;;;26.45;17.40;;;;;;;;;;5031894;28;20145;-76
2023/02/23 04:37:12;;;;;;;26.52;17.02;;;;;;;;;;5050160;28;20029;-77
2023/02/23 04:39:38;;;;;;;26.55;17.70;;;;;;;;;;5050971;28;20033;-77
2023/02/23 04:42:04;;;;;;;28.98;17.42;;;;;;;;;;5042520;28;20501;-76
2023/02/23 04:44:30;;;;;;;29.70;18.45;;;;;;;;;;5051163;28;20035;-77
2023/02/23 04:46:57;;;;;;;34.15;17.92;;;;;;;;;;5050207;28;20033;-76
2023/02/23 04:49:23;;;;;;;29.67;16.45;;;;;;;;;;5040715;28;20083;-77
2023/02/23 04:51:49;;;;;;;25.63;17.98;;;;;;;;;;5044391;28;20037;-77
2023/02/23 04:54:16;;;;;;;30.67;20.48;;;;;;;;;;5050627;28;20055;-77
2023/02/23 04:56:42;;;;;;;29.58;17.83;;;;;;;;;;5048909;28;20471;-76
2023/02/23 04:59:08;;;;;;;28.77;17.48;;;;;;;;;;5049493;28;20041;-76
2023/02/23 05:01:35;;;;;;;28.60;19.42;;;;;;;;;;5050277;28;20083;-76
2023/02/23 05:04:01;;;;;;;32.83;21.13;;;;;;;;;;5050014;28;20033;-77
2023/02/23 05:06:28;;;;;;;35.70;20.55;;;;;;;;;;5049733;28;20060;-77
2023/02/23 05:08:54;;;;;;;30.42;19.42;;;;;;;;;;5049810;28;20502;-77
2023/02/23 05:11:20;;;;;;;28.60;14.90;;;;;;;;;;5049874;28;20068;-76
2023/02/23 05:13:46;;;;;;;36.60;21.48;;;;;;;;;;5048569;28;20056;-76
2023/02/23 05:16:11;;;;;;;64.70;44.47;;;;;;;;;;5048956;28;20028;-77
2023/02/23 05:18:38;;;;;;;41.38;28.58;;;;;;;;;;5050526;28;20029;-76
2023/02/23 05:21:05;;;;;;;34.50;21.48;;;;;;;;;;5049869;28;20029;-77
2023/02/23 05:23:33;;;;;;;36.38;21.27;;;;;;;;;;5049569;28;20129;-76
2023/02/23 05:26:02;;;;;;;31.85;20.58;;;;;;;;;;5041719;28;20033;-77
2023/02/23 05:28:28;;;;;;;29.35;19.05;;;;;;;;;;5046066;28;20028;-77
2023/02/23 05:30:54;;;;;;;31.48;18.92;;;;;;;;;;5044997;28;20151;-77
2023/02/23 05:33:20;;;;;;;33.90;20.40;;;;;;;;;;5049932;28;20033;-77
2023/02/23 05:35:47;;;;;;;31.00;18.80;;;;;;;;;;5049402;28;20025;-76
2023/02/23 05:38:13;;;;;;;29.05;17.20;;;;;;;;;;5050109;28;20037;-76
2023/02/23 05:40:39;;;;;;;24.20;16.83;;;;;;;;;;5046982;28;20094;-77
2023/02/23 05:43:05;;;;;;;37.20;23.42;;;;;;;;;;5042063;28;20041;-76
2023/02/23 05:45:32;;;;;;;36.58;20.48;;;;;;;;;;5047275;28;20131;-77
2023/02/23 05:47:58;;;;;;;44.78;27.73;;;;;;;;;;5039648;28;20486;-76
2023/02/23 05:50:24;;;;;;;37.33;22.63;;;;;;;;;;5045203;28;20021;-77
2023/02/23 05:52:50;;;;;;;29.85;17.65;;;;;;;;;;5046816;28;20382;-76
2023/02/23 05:55:16;;;;;;;31.27;18.95;;;;;;;;;;5049300;28;20033;-77
2023/02/23 05:57:43;;;;;;;28.40;16.48;;;;;;;;;;5040714;28;20029;-77
2023/02/23 06:00:10;;;;;;;27.15;16.80;;;;;;;;;;5037319;28;20040;-76
2023/02/23 06:02:36;;;;;;;29.40;17.88;;;;;;;;;;5053141;28;20136;-77
2023/02/23 06:05:02;;;;;;;29.05;18.80;;;;;;;;;;5038470;28;20132;-77
2023/02/23 06:07:28;;;;;;;33.15;21.98;;;;;;;;;;5037122;28;20048;-75
2023/02/23 06:09:54;;;;;;;32.45;21.35;;;;;;;;;;5038201;28;20037;-76
2023/02/23 06:12:22;;;;;;;37.65;24.98;;;;;;;;;;5053009;28;20040;-76
2023/02/23 06:14:49;;;;;;;33.33;19.67;;;;;;;;;;5037533;28;20029;-77
2023/02/23 06:17:15;;;;;;;30.92;20.00;;;;;;;;;;5045993;28;20466;-76
2023/02/23 06:19:41;;;;;;;33.10;19.27;;;;;;;;;;5036986;28;20078;-76
2023/02/23 06:22:07;;;;;;;31.20;18.42;;;;;;;;;;5045656;28;20037;-76
2023/02/23 06:24:33;;;;;;;32.90;19.15;;;;;;;;;;5047919;28;20025;-77
2023/02/23 06:27:00;;;;;;;33.03;17.52;;;;;;;;;;5047444;28;20029;-77
2023/02/23 06:29:26;;;;;;;29.10;18.38;;;;;;;;;;5051134;28;20459;-76
2023/02/23 06:31:52;;;;;;;27.75;15.95;;;;;;;;;;5049770;28;20498;-77
2023/02/23 06:34:18;;;;;;;28.98;15.93;;;;;;;;;;5047227;28;20128;-76
2023/02/23 06:36:44;;;;;;;27.60;15.75;;;;;;;;;;5047107;28;20052;-78
2023/02/23 06:39:11;;;;;;;21.45;13.38;;;;;;;;;;5044119;28;20033;-75
2023/02/23 06:41:37;;;;;;;24.23;14.93;;;;;;;;;;5040472;28;20041;-75
2023/02/23 06:44:03;;;;;;;28.65;18.98;;;;;;;;;;5028983;28;20041;-75
2023/02/23 06:46:29;;;;;;;35.15;20.98;;;;;;;;;;5037004;28;20037;-75
2023/02/23 06:48:58;;;;;;;34.42;19.30;;;;;;;;;;5048433;28;20041;-75
2023/02/23 06:51:24;;;;;;;39.05;22.55;;;;;;;;;;5033170;28;20107;-75
2023/02/23 06:53:53;;;;;;;30.67;17.70;;;;;;;;;;5048052;28;20541;-74
2023/02/23 06:56:19;;;;;;;32.55;19.65;;;;;;;;;;5042443;28;20045;-75
2023/02/23 06:58:46;;;;;;;27.55;18.20;;;;;;;;;;5048682;28;20063;-75
2023/02/23 07:01:12;;;;;;;35.92;21.60;;;;;;;;;;5047640;28;20044;-74
2023/02/23 07:03:39;;;;;;;27.25;17.92;;;;;;;;;;5044387;28;20086;-75
2023/02/23 07:06:05;;;;;;;26.77;16.65;;;;;;;;;;5046400;28;20115;-75
2023/02/23 07:08:32;;;;;;;30.40;18.10;;;;;;;;;;5045332;28;20072;-75
2023/02/23 07:11:08;;;;;;;37.03;21.35;;;;;;;;;;5044909;28;20032;-75
2023/02/23 07:13:34;;;;;;;36.63;21.17;;;;;;;;;;5048500;28;20563;-75
2023/02/23 07:16:00;;;;;;;39.20;22.17;;;;;;;;;;5044965;28;20108;-75
2023/02/23 07:18:26;;;;;;;43.33;22.17;;;;;;;;;;5048494;28;20075;-74
2023/02/23 07:20:52;;;;;;;38.95;22.02;;;;;;;;;;5047634;28;20041;-75
2023/02/23 07:23:18;;;;;;;39.05;21.40;;;;;;;;;;5048187;28;20025;-75
2023/02/23 07:25:44;;;;;;;44.67;21.25;;;;;;;;;;5029598;28;20037;-75
2023/02/23 07:28:13;;;;;;;52.92;24.67;;;;;;;;;;5046386;28;20029;-75
2023/02/23 07:30:40;;;;;;;90.50;37.38;;;;;;;;;;5049954;28;20044;-75
2023/02/23 07:33:06;;;;;;;88.43;38.42;;;;;;;;;;5051754;28;20028;-75
2023/02/23 07:35:32;;;;;;;58.10;26.77;;;;;;;;;;5050218;28;20084;-75
2023/02/23 07:37:58;;;;;;;37.97;21.15;;;;;;;;;;5051314;28;20060;-74
2023/02/23 07:40:24;;;;;;;36.25;21.50;;;;;;;;;;5049629;28;20443;-75
2023/02/23 07:42:50;;;;;;;36.22;22.45;;;;;;;;;;5051640;28;20036;-75
2023/02/23 07:45:17;;;;;;;30.60;17.55;;;;;;;;;;5050356;28;20037;-76
2023/02/23 07:47:43;;;;;;;30.60;18.85;;;;;;;;;;5048255;28;20108;-75
2023/02/23 07:50:11;;;;;;;32.17;18.90;;;;;;;;;;5037932;28;20118;-75
2023/02/23 07:52:38;;;;;;;34.90;20.38;;;;;;;;;;5051321;28;20104;-75
2023/02/23 07:55:05;;;;;;;31.35;19.23;;;;;;;;;;5051676;28;20048;-74
2023/02/23 07:57:31;;;;;;;45.97;25.80;;;;;;;;;;5051467;28;20056;-75
2023/02/23 07:59:57;;;;;;;33.28;20.98;;;;;;;;;;5041147;28;20394;-75
2023/02/23 08:02:23;;;;;;;33.72;21.65;;;;;;;;;;5050597;28;20033;-75
2023/02/23 08:04:49;;;;;;;32.25;20.55;;;;;;;;;;5050379;28;20914;-75
2023/02/23 08:07:15;;;;;;;37.30;23.27;;;;;;;;;;5050909;28;20072;-75
2023/02/23 08:09:41;;;;;;;35.67;22.25;;;;;;;;;;5042817;28;20041;-75
2023/02/23 08:12:09;;;;;;;31.58;20.88;;;;;;;;;;5047499;28;20798;-75
2023/02/23 08:14:35;;;;;;;35.40;19.23;;;;;;;;;;5049789;28;20108;-75
2023/02/23 08:17:01;;;;;;;33.13;17.38;;;;;;;;;;5049020;28;20029;-75
2023/02/23 08:19:27;;;;;;;30.30;17.55;;;;;;;;;;5046482;28;20083;-76
2023/02/23 08:21:53;;;;;;;28.88;16.67;;;;;;;;;;5051426;28;20036;-74
2023/02/23 08:24:19;;;;;;;25.45;15.00;;;;;;;;;;5049279;28;20045;-75
2023/02/23 08:26:45;;;;;;;27.70;17.05;;;;;;;;;;5054347;28;20066;-75
2023/02/23 08:29:11;;;;;;;25.60;15.55;;;;;;;;;;5044646;28;20436;-75
2023/02/23 08:31:37;;;;;;;28.20;17.33;;;;;;;;;;5051349;28;20024;-75
2023/02/23 08:34:03;;;;;;;26.73;15.77;;;;;;;;;;5052786;28;20033;-75
2023/02/23 08:36:29;;;;;;;24.05;14.65;;;;;;;;;;5050339;28;20502;-75
2023/02/23 08:38:56;;;;;;;25.20;14.18;;;;;;;;;;5054582;28;20107;-75
2023/02/23 08:41:22;;;;;;;25.27;14.38;;;;;;;;;;5048882;28;20027;-76
2023/02/23 08:43:48;;;;;;;21.92;13.88;;;;;;;;;;5050642;28;20144;-76
2023/02/23 08:46:17;;;;;;;29.95;17.23;;;;;;;;;;5044560;28;20100;-76
2023/02/23 08:48:43;;;;;;;22.17;12.63;;;;;;;;;;5054714;28;20033;-74
2023/02/23 08:51:09;;;;;;;20.52;10.73;;;;;;;;;;5043901;28;21037;-75
2023/02/23 08:53:35;;;;;;;19.30;10.20;;;;;;;;;;5051123;28;20024;-75
2023/02/23 08:56:02;;;;;;;16.55;10.02;;;;;;;;;;5049970;28;20035;-75
2023/02/23 08:58:32;;;;;;;16.52;10.63;;;;;;;;;;5046341;28;20029;-74
2023/02/23 09:00:58;;;;;;;15.73;9.32;;;;;;;;;;5043885;28;20078;-75
2023/02/23 09:03:30;;;;;;;22.08;8.88;;;;;;;;;;5049665;28;20036;-75
2023/02/23 09:05:57;;;;;;;14.20;7.65;;;;;;;;;;5050947;28;20609;-75
2023/02/23 09:08:23;;;;;;;14.48;7.20;;;;;;;;;;5050214;28;20044;-76
2023/02/23 09:10:49;;;;;;;13.02;7.57;;;;;;;;;;5049414;28;20545;-76
2023/02/23 09:13:16;;;;;;;14.55;7.57;;;;;;;;;;5026014;28;20028;-75
2023/02/23 09:15:42;;;;;;;15.35;7.63;;;;;;;;;;5042325;28;20082;-76
2023/02/23 09:18:16;;;;;;;13.23;6.70;;;;;;;;;;5032562;28;20025;-75
2023/02/23 09:20:43;;;;;;;15.00;6.85;;;;;;;;;;5049486;28;20537;-76
2023/02/23 09:23:09;;;;;;;15.10;6.78;;;;;;;;;;5043020;28;20537;-76
2023/02/23 09:25:38;;;;;;;16.70;8.30;;;;;;;;;;5047408;28;20359;-75
2023/02/23 09:28:04;;;;;;;14.47;8.00;;;;;;;;;;5047486;28;20083;-75
2023/02/23 09:30:31;;;;;;;14.68;8.18;;;;;;;;;;5049925;28;20029;-76
2023/02/23 09:32:57;;;;;;;17.10;6.88;;;;;;;;;;5044407;28;20509;-75
2023/02/23 09:35:24;;;;;;;13.75;7.25;;;;;;;;;;5038603;28;20034;-75
2023/02/23 09:37:51;;;;;;;18.17;7.70;;;;;;;;;;5045811;28;20036;-76
2023/02/23 09:40:20;;;;;;;13.23;6.60;;;;;;;;;;5043487;28;20084;-75
2023/02/23 09:42:49;;;;;;;13.18;6.80;;;;;;;;;;5046983;28;20056;-75
2023/02/23 09:45:25;;;;;;;13.93;6.10;;;;;;;;;;5042543;28;20462;-76
2023/02/23 09:48:05;;;;;;;17.90;6.95;;;;;;;;;;5047493;28;20050;-76
2023/02/23 09:50:33;;;;;;;14.07;7.53;;;;;;;;;;5040392;28;20039;-76
2023/02/23 09:53:22;;;;;;;14.73;7.68;;;;;;;;;;5046166;28;20984;-76
2023/02/23 09:55:49;;;;;;;19.58;7.30;;;;;;;;;;5037524;28;20060;-75
2023/02/23 09:58:19;;;;;;;14.60;5.88;;;;;;;;;;5045762;28;20382;-76
2023/02/23 10:00:47;;;;;;;16.00;4.93;;;;;;;;;;5047430;28;20037;-76
2023/02/23 10:03:13;;;;;;;10.48;4.00;;;;;;;;;;5043760;28;20029;-75
2023/02/23 10:05:42;;;;;;;12.38;4.60;;;;;;;;;;5042120;28;20052;-76
2023/02/23 10:08:16;;;;;;;9.20;4.50;;;;;;;;;;5049014;28;20040;-76
2023/02/23 10:10:42;;;;;;;15.15;5.72;;;;;;;;;;5048949;28;20095;-75
2023/02/23 10:13:11;;;;;;;14.02;5.72;;;;;;;;;;5048283;28;20554;-76
2023/02/23 10:15:44;;;;;;;17.00;6.05;;;;;;;;;;5049136;28;20915;-76
2023/02/23 10:18:32;;;;;;;10.77;5.55;;;;;;;;;;5046127;28;20390;-76
2023/02/23 10:21:06;;;;;;;13.32;6.22;;;;;;;;;;5008417;28;20049;-76
2023/02/23 10:23:48;;;;;;;16.60;5.78;;;;;;;;;;5042283;28;20039;-76
2023/02/23 10:26:18;;;;;;;14.68;6.15;;;;;;;;;;5046559;28;20100;-75
2023/02/23 10:28:44;;;;;;;17.10;6.07;;;;;;;;;;5048813;28;20390;-76
2023/02/23 10:31:33;;;;;;;17.65;6.18;;;;;;;;;;5044700;28;20025;-75
2023/02/23 10:34:02;;;;;;;10.20;5.13;;;;;;;;;;5034366;28;20052;-76
2023/02/23 10:36:35;;;;;;;12.10;5.57;;;;;;;;;;5046078;28;20021;-75
2023/02/23 10:39:02;;;;;;;14.63;6.38;;;;;;;;;;5047814;28;20045;-75
2023/02/23 10:41:28;;;;;;;20.98;6.50;;;;;;;;;;5053249;28;20028;-75
2023/02/23 10:43:54;;;;;;;13.55;5.72;;;;;;;;;;5048941;28;20044;-75
2023/02/23 10:46:21;;;;;;;13.43;5.93;;;;;;;;;;5048129;28;20450;-75
2023/02/23 10:48:48;;;;;;;17.02;6.35;;;;;;;;;;5047763;28;20048;-76
2023/02/23 10:51:24;;;;;;;15.30;6.65;;;;;;;;;;5048604;28;20028;-76
2023/02/23 10:53:51;;;;;;;14.52;6.75;;;;;;;;;;5047751;28;20119;-75
2023/02/23 10:56:18;;;;;;;16.63;8.15;;;;;;;;;;5046103;28;20014;-76
2023/02/23 10:58:45;;;;;;;15.82;7.72;;;;;;;;;;5048033;28;20119;-75
2023/02/23 11:01:11;;;;;;;16.65;6.93;;;;;;;;;;5048810;28;20107;-76
2023/02/23 11:03:42;;;;;;;18.15;7.47;;;;;;;;;;5044149;28;20025;-75
2023/02/23 11:06:28;;;;;;;17.75;6.97;;;;;;;;;;5047236;28;20055;-75
2023/02/23 11:08:54;;;;;;;17.33;8.07;;;;;;;;;;5047095;28;20044;-75
2023/02/23 11:11:24;;;;;;;20.10;6.85;;;;;;;;;;5048608;28;20025;-75
2023/02/23 11:13:51;;;;;;;13.75;6.85;;;;;;;;;;5050145;28;20112;-75
2023/02/23 11:16:24;;;;;;;14.52;6.05;;;;;;;;;;5048853;28;20060;-75
2023/02/23 11:18:57;;;;;;;12.05;5.32;;;;;;;;;;5051672;28;20107;-76
2023/02/23 11:21:34;;;;;;;14.98;5.88;;;;;;;;;;5052711;28;20756;-76
2023/02/23 11:24:18;;;;;;;14.15;6.03;;;;;;;;;;5050016;28;20093;-76
2023/02/23 11:26:45;;;;;;;14.73;6.00;;;;;;;;;;5051431;28;20429;-76
2023/02/23 11:29:24;;;;;;;12.23;4.93;;;;;;;;;;5053076;28;20037;-75
2023/02/23 11:31:52;;;;;;;13.80;6.53;;;;;;;;;;5049113;28;20044;-75
2023/02/23 11:34:29;;;;;;;14.93;5.68;;;;;;;;;;5048418;28;20025;-75
2023/02/23 11:37:05;;;;;;;16.02;4.97;;;;;;;;;;5048443;28;20456;-75
2023/02/23 11:39:32;;;;;;;15.68;5.38;;;;;;;;;;5051408;28;20033;-76
2023/02/23 11:42:11;;;;;;;11.68;4.47;;;;;;;;;;5055934;28;20036;-76
2023/02/23 11:44:37;;;;;;;9.23;4.43;;;;;;;;;;5043008;28;20052;-75
2023/02/23 11:47:04;;;;;;;11.23;4.35;;;;;;;;;;5051928;28;20041;-75
2023/02/23 11:49:33;;;;;;;14.88;4.38;;;;;;;;;;5050808;28;20704;-75
2023/02/23 11:51:59;;;;;;;12.25;4.65;;;;;;;;;;5051559;28;20032;-75
2023/02/23 11:54:32;;;;;;;10.20;5.00;;;;;;;;;;5044185;28;20036;-75
2023/02/23 11:57:01;;;;;;;13.60;4.32;;;;;;;;;;5043263;28;20034;-76
2023/02/23 11:59:31;;;;;;;13.43;5.35;;;;;;;;;;5049803;28;20025;-75
2023/02/23 12:02:18;;;;;;;14.40;5.43;;;;;;;;;;5048375;28;20039;-75
2023/02/23 12:04:46;;;;;;;12.10;5.47;;;;;;;;;;5050657;28;20532;-76
2023/02/23 12:07:18;;;;;;;18.42;6.90;;;;;;;;;;5050025;28;20076;-75
2023/02/23 12:09:45;;;;;;;13.68;5.55;;;;;;;;;;5041156;28;20475;-76
2023/02/23 12:12:22;;;;;;;17.42;7.60;;;;;;;;;;5051130;28;20412;-75
2023/02/23 12:14:51;;;;;;;15.07;8.23;;;;;;;;;;5043361;28;20026;-75
2023/02/23 12:17:23;;;;;;;19.25;7.97;;;;;;;;;;5050409;28;20052;-75
2023/02/23 12:19:52;;;;;;;21.13;9.13;;;;;;;;;;5051406;28;20082;-75
2023/02/23 12:22:21;;;;;;;18.38;8.10;;;;;;;;;;5050950;28;20087;-75
2023/02/23 12:24:53;;;;;;;14.30;7.72;;;;;;;;;;5046533;28;20065;-76
2023/02/23 12:27:26;;;;;;;21.98;8.77;;;;;;;;;;5041994;28;20200;-75
2023/02/23 12:30:06;;;;;;;15.48;8.82;;;;;;;;;;5045960;28;20025;-75
2023/02/23 12:32:52;;;;;;;14.73;7.50;;;;;;;;;;5053831;28;20471;-76
2023/02/23 12:35:22;;;;;;;18.23;9.02;;;;;;;;;;5048308;28;20033;-76
2023/02/23 12:37:52;;;;;;;19.58;11.25;;;;;;;;;;5046694;28;20033;-75
2023/02/23 12:40:21;;;;;;;22.58;8.75;;;;;;;;;;5050760;28;20062;-76
2023/02/23 12:42:53;;;;;;;16.45;9.65;;;;;;;;;;5050008;28;20028;-75
2023/02/23 12:45:28;;;;;;;16.35;9.75;;;;;;;;;;5048247;28;20425;-75
2023/02/23 12:48:13;;;;;;;18.25;8.95;;;;;;;;;;5045047;28;20084;-76
2023/02/23 12:50:42;;;;;;;18.27;9.82;;;;;;;;;;5046635;28;20053;-75
2023/02/23 12:53:23;;;;;;;16.95;9.70;;;;;;;;;;5049440;28;20519;-75
2023/02/23 12:55:52;;;;;;;18.10;9.38;;;;;;;;;;5042180;28;20052;-76
2023/02/23 12:58:24;;;;;;;18.52;9.55;;;;;;;;;;5044541;28;20061;-75
2023/02/23 13:01:13;;;;;;;18.42;9.02;;;;;;;;;;5049990;28;20040;-76
2023/02/23 13:03:45;;;;;;;18.08;9.40;;;;;;;;;;5048198;28;20037;-75
2023/02/23 13:06:16;;;;;;;18.20;9.18;;;;;;;;;;5049900;28;20128;-76
2023/02/23 13:08:45;;;;;;;16.23;9.37;;;;;;;;;;5049480;28;20680;-75
2023/02/23 13:11:21;;;;;;;15.35;8.15;;;;;;;;;;5049689;28;20362;-76
2023/02/23 13:13:47;;;;;;;17.50;8.35;;;;;;;;;;5048016;28;20036;-75
2023/02/23 13:16:16;;;;;;;16.20;8.25;;;;;;;;;;5049894;28;20523;-75
2023/02/23 13:18:48;;;;;;;15.40;8.25;;;;;;;;;;5051241;28;20510;-75
2023/02/23 13:21:22;;;;;;;16.88;9.05;;;;;;;;;;5049643;28;20107;-76
2023/02/23 13:23:48;;;;;;;38.53;19.42;;;;;;;;;;5040565;28;20036;-75
2023/02/23 13:26:23;;;;;;;17.95;9.20;;;;;;;;;;5036174;28;20033;-75
2023/02/23 13:28:55;;;;;;;22.15;9.45;;;;;;;;;;5048644;28;20474;-75
2023/02/23 13:31:26;;;;;;;21.10;10.25;;;;;;;;;;5041689;28;20102;-75
2023/02/23 13:33:54;;;;;;;18.75;9.68;;;;;;;;;;5046549;28;20071;-75
2023/02/23 13:36:20;;;;;;;18.13;8.85;;;;;;;;;;5045760;28;20044;-75
2023/02/23 13:38:55;;;;;;;15.30;8.15;;;;;;;;;;5046706;28;20064;-75
2023/02/23 13:41:30;;;;;;;16.95;8.25;;;;;;;;;;5047840;28;20025;-75
2023/02/23 13:44:09;;;;;;;17.00;7.45;;;;;;;;;;5040148;28;20071;-76
2023/02/23 13:46:43;;;;;;;16.30;7.80;;;;;;;;;;5047142;28;20090;-76
2023/02/23 13:49:28;;;;;;;16.58;9.30;;;;;;;;;;5050873;28;20032;-75
2023/02/23 13:51:56;;;;;;;19.83;9.65;;;;;;;;;;5044442;28;20024;-75
2023/02/23 13:54:31;;;;;;;17.42;9.25;;;;;;;;;;5040147;28;20036;-76
2023/02/23 13:57:02;;;;;;;15.45;8.43;;;;;;;;;;5035749;28;20033;-75
2023/02/23 13:59:29;;;;;;;20.45;9.68;;;;;;;;;;5038833;28;20079;-76
2023/02/23 14:01:56;;;;;;;19.88;9.48;;;;;;;;;;5042239;28;20025;-75
2023/02/23 14:04:35;;;;;;;19.95;10.15;;;;;;;;;;5053502;28;20501;-75
2023/02/23 14:07:15;;;;;;;16.98;9.40;;;;;;;;;;5047704;28;20052;-76
2023/02/23 14:09:46;;;;;;;18.27;10.45;;;;;;;;;;5048553;28;20052;-76
2023/02/23 14:12:41;;;;;;;21.25;11.02;;;;;;;;;;5048169;28;20025;-76
2023/02/23 14:15:28;;;;;;;19.00;9.85;;;;;;;;;;5028790;28;20482;-75
2023/02/23 14:17:56;;;;;;;17.50;10.30;;;;;;;;;;5043290;28;20025;-76
2023/02/23 14:20:28;;;;;;;19.38;9.38;;;;;;;;;;5047450;28;20044;-76
2023/02/23 14:23:12;;;;;;;16.67;10.00;;;;;;;;;;5061561;28;20164;-76
2023/02/23 14:25:39;;;;;;;19.65;9.10;;;;;;;;;;5048123;28;20090;-75
2023/02/23 14:28:24;;;;;;;22.23;11.55;;;;;;;;;;5051857;28;20036;-76
2023/02/23 14:31:10;;;;;;;21.80;10.20;;;;;;;;;;5043874;28;20130;-76
2023/02/23 14:33:36;;;;;;;18.88;10.25;;;;;;;;;;5032344;28;20122;-76
2023/02/23 14:36:02;;;;;;;19.20;9.57;;;;;;;;;;5048174;28;20060;-76
2023/02/23 14:38:28;;;;;;;22.75;11.00;;;;;;;;;;5048585;28;20036;-75
2023/02/23 14:40:54;;;;;;;18.83;11.05;;;;;;;;;;5047238;28;20029;-75
2023/02/23 14:43:42;;;;;;;20.95;9.68;;;;;;;;;;5055182;28;20064;-76
2023/02/23 14:46:10;;;;;;;23.42;11.00;;;;;;;;;;5052705;28;20032;-75
2023/02/23 14:48:45;;;;;;;25.30;11.68;;;;;;;;;;5053989;28;20040;-75
2023/02/23 14:51:15;;;;;;;21.38;10.95;;;;;;;;;;5049799;28;20577;-76
2023/02/23 14:53:41;;;;;;;21.92;11.10;;;;;;;;;;5049851;28;20065;-75
2023/02/23 14:56:17;;;;;;;20.10;11.48;;;;;;;;;;5052103;28;20090;-75
2023/02/23 14:58:49;;;;;;;21.98;11.25;;;;;;;;;;5050544;28;20060;-75
2023/02/23 15:01:30;;;;;;;15.98;10.00;;;;;;;;;;5051573;28;20063;-75
2023/02/23 15:04:10;;;;;;;22.20;10.75;;;;;;;;;;5051879;28;20036;-75
2023/02/23 15:06:37;;;;;;;21.67;10.88;;;;;;;;;;5047692;28;20072;-76
2023/02/23 15:09:03;;;;;;;20.58;10.50;;;;;;;;;;5050782;28;20059;-75
2023/02/23 15:11:33;;;;;;;17.38;10.38;;;;;;;;;;5049741;28;20029;-75
2023/02/23 15:13:59;;;;;;;19.48;8.75;;;;;;;;;;5051686;28;20041;-76
2023/02/23 15:16:30;;;;;;;23.08;9.30;;;;;;;;;;5052388;28;20020;-75
2023/02/23 15:18:58;;;;;;;20.40;8.57;;;;;;;;;;5040304;28;20370;-75
2023/02/23 15:21:24;;;;;;;20.67;9.35;;;;;;;;;;5055757;28;20383;-75
2023/02/23 15:23:58;;;;;;;21.63;9.80;;;;;;;;;;5053603;28;20037;-75
2023/02/23 15:26:31;;;;;;;19.35;9.70;;;;;;;;;;5051101;28;20116;-76
2023/02/23 15:29:05;;;;;;;21.50;9.70;;;;;;;;;;5052259;28;20116;-75
2023/02/23 15:31:31;;;;;;;18.20;8.45;;;;;;;;;;5050285;28;20025;-75
2023/02/23 15:33:57;;;;;;;14.50;6.18;;;;;;;;;;5052006;28;20489;-76
2023/02/23 15:36:29;;;;;;;17.30;6.63;;;;;;;;;;5050406;28;20021;-75
2023/02/23 15:38:56;;;;;;;12.85;6.78;;;;;;;;;;5045639;28;20041;-75
2023/02/23 15:41:28;;;;;;;18.60;7.35;;;;;;;;;;5049892;28;20031;-75
2023/02/23 15:43:56;;;;;;;18.25;8.38;;;;;;;;;;5049820;28;20045;-75
2023/02/23 15:46:27;;;;;;;19.27;8.95;;;;;;;;;;5050282;28;20717;-76
2023/02/23 15:48:54;;;;;;;19.30;8.33;;;;;;;;;;5051145;28;20047;-76
2023/02/23 15:51:22;;;;;;;18.80;9.18;;;;;;;;;;5049138;28;20820;-75
2023/02/23 15:53:48;;;;;;;21.55;8.93;;;;;;;;;;5052284;28;20033;-74
2023/02/23 15:56:28;;;;;;;18.02;8.85;;;;;;;;;;5045151;28;20459;-75
2023/02/23 15:59:09;;;;;;;18.13;9.13;;;;;;;;;;5050324;28;20033;-75